Time;durP1;ratioP1;P1;durP2;ratioP2;P2;SDS_P1;SDS_P2;PMS_P1;PMS_P2;Temp;Humidity;BMP_temperature;BMP_pressure;BME280_temperature;BME280_humidity;BME280_pressure;Samples;Min_cycle;Max_cycle;Signal;HPM_P1;HPM_P2
2021/01/29 16:49:27;;;;;;;1999.90;999.90;;;4.10;99.90;;;;;;5088205;28;20643;-47
2021/01/29 16:51:59;;;;;;;1999.90;999.90;;;4.20;99.90;;;;;;5070418;28;20449;-48
2021/01/29 16:54:30;;;;;;;1999.90;999.90;;;4.40;99.90;;;;;;5089188;28;20942;-48
2021/01/29 16:57:06;;;;;;;1999.90;999.90;;;4.40;99.90;;;;;;5087940;28;20843;-48
2021/01/29 16:59:33;;;;;;;1999.90;999.90;;;4.20;99.90;;;;;;5082199;28;20423;-48
2021/01/29 17:02:10;;;;;;;1999.90;999.90;;;4.20;99.90;;;;;;5087777;28;20954;-49
2021/01/29 17:04:41;;;;;;;1999.90;999.90;;;4.20;99.90;;;;;;5089241;28;20544;-47
2021/01/29 17:07:08;;;;;;;1999.90;999.90;;;4.10;99.90;;;;;;5079936;28;20470;-49
2021/01/29 17:09:37;;;;;;;1999.90;999.90;;;4.10;99.90;;;;;;5071745;28;20424;-49
2021/01/29 17:12:32;;;;;;;1999.90;999.90;;;4.00;99.90;;;;;;5079784;28;20455;-47
2021/01/29 17:14:59;;;;;;;1999.90;999.90;;;3.80;99.90;;;;;;5057574;28;20759;-48
2021/01/29 17:17:26;;;;;;;1999.90;999.90;;;3.90;99.90;;;;;;5066410;28;20952;-47
2021/01/29 17:19:51;;;;;;;1999.90;999.90;;;3.80;99.90;;;;;;5067051;28;20399;-48
2021/01/29 17:22:26;;;;;;;1999.90;999.90;;;3.70;99.90;;;;;;5066830;28;20416;-48
2021/01/29 17:25:06;;;;;;;1999.90;999.90;;;3.50;99.90;;;;;;5064288;28;20423;-48
2021/01/29 17:27:33;;;;;;;1999.90;999.90;;;3.40;99.90;;;;;;5066581;28;20466;-47
2021/01/29 17:30:08;;;;;;;1999.90;999.90;;;3.50;99.90;;;;;;5066757;28;20426;-48
2021/01/29 17:32:36;;;;;;;1999.90;999.90;;;3.40;99.90;;;;;;5080851;28;20517;-49
2021/01/29 17:35:07;;;;;;;1999.90;999.90;;;3.50;99.90;;;;;;5064693;28;20987;-48
2021/01/29 17:37:34;;;;;;;1999.90;999.90;;;3.40;99.90;;;;;;5070146;28;20451;-48
2021/01/29 17:39:59;;;;;;;1999.90;999.90;;;3.50;99.90;;;;;;5074770;28;20442;-48
2021/01/29 17:42:27;;;;;;;1999.90;999.90;;;3.60;99.90;;;;;;5078259;28;21059;-48
2021/01/29 17:45:32;;;;;;;1999.90;999.90;;;3.80;99.90;;;;;;5076322;28;20180;-49
2021/01/29 17:48:22;;;;;;;1999.90;999.90;;;3.90;99.90;;;;;;5076433;28;20473;-48
2021/01/29 17:50:51;;;;;;;1999.90;999.90;;;4.00;99.90;;;;;;5077888;28;20513;-48
2021/01/29 17:53:44;;;;;;;1999.90;999.90;;;3.90;99.90;;;;;;5070458;28;20522;-48
2021/01/29 17:56:31;;;;;;;1999.90;999.90;;;3.70;99.90;;;;;;5072724;28;20827;-49
2021/01/29 17:58:56;;;;;;;1999.90;999.90;;;3.60;99.90;;;;;;5064629;28;20436;-48
2021/01/29 18:01:24;;;;;;;1999.90;999.90;;;3.40;99.90;;;;;;5055951;28;20467;-48
2021/01/29 18:04:02;;;;;;;1999.90;999.90;;;3.50;99.90;;;;;;5056487;28;20171;-48
2021/01/29 18:06:56;;;;;;;1999.90;999.90;;;3.50;99.90;;;;;;5060809;28;20816;-49
2021/01/29 18:09:27;;;;;;;1999.90;999.90;;;3.60;99.90;;;;;;5065160;28;20436;-48
2021/01/29 18:12:04;;;;;;;1999.90;999.90;;;3.70;99.90;;;;;;5062545;28;21068;-49
2021/01/29 18:15:04;;;;;;;1999.90;999.90;;;3.60;99.90;;;;;;5063422;28;20404;-48
2021/01/29 18:17:32;;;;;;;1999.90;999.90;;;3.70;99.90;;;;;;5039538;28;20460;-48
2021/01/29 18:20:02;;;;;;;1999.90;999.90;;;3.70;99.90;;;;;;5059609;28;20423;-49
2021/01/29 18:22:28;;;;;;;1999.90;999.90;;;3.60;99.90;;;;;;5058650;28;20408;-48
2021/01/29 18:24:56;;;;;;;1999.90;999.90;;;3.70;99.90;;;;;;5054077;28;21005;-49
2021/01/29 18:27:23;;;;;;;1999.90;999.90;;;3.70;99.90;;;;;;5055186;28;20561;-48
2021/01/29 18:29:49;;;;;;;1999.90;999.90;;;3.70;99.90;;;;;;5057477;28;20983;-49
2021/01/29 18:32:18;;;;;;;1999.90;999.90;;;3.70;99.90;;;;;;5060744;28;20440;-49
2021/01/29 18:34:48;;;;;;;1999.90;999.90;;;3.70;99.90;;;;;;5055683;28;20404;-48
2021/01/29 18:37:15;;;;;;;1999.90;999.90;;;3.60;99.90;;;;;;5057374;28;20467;-49
2021/01/29 18:39:41;;;;;;;1999.90;999.90;;;3.50;99.90;;;;;;5056501;28;20458;-49
2021/01/29 18:42:12;;;;;;;1999.90;999.90;;;3.60;99.90;;;;;;5057021;28;20947;-49
2021/01/29 18:44:39;;;;;;;1999.90;999.90;;;3.80;99.90;;;;;;5053405;28;20435;-50
2021/01/29 18:47:05;;;;;;;1999.90;999.90;;;3.80;99.90;;;;;;5053360;28;20452;-48
2021/01/29 18:49:31;;;;;;;1999.90;999.90;;;3.80;99.90;;;;;;5055767;28;20405;-48
2021/01/29 18:51:56;;;;;;;1999.90;999.90;;;3.70;99.90;;;;;;5056613;28;20899;-48
2021/01/29 18:54:22;;;;;;;1999.90;999.90;;;3.70;99.90;;;;;;5058365;28;20174;-48
2021/01/29 18:56:48;;;;;;;1999.90;999.90;;;3.70;99.90;;;;;;5056440;28;20208;-49
2021/01/29 18:59:14;;;;;;;1999.90;999.90;;;3.70;99.90;;;;;;5059015;28;20600;-49
2021/01/29 19:01:40;;;;;;;1999.90;999.90;;;3.70;99.90;;;;;;5063405;28;20292;-49
2021/01/29 19:04:06;;;;;;;1999.90;999.90;;;3.60;99.90;;;;;;5053892;28;20237;-48
2021/01/29 19:06:32;;;;;;;1999.90;999.90;;;3.70;99.90;;;;;;5058545;28;20961;-48
2021/01/29 19:08:58;;;;;;;1999.90;999.90;;;3.70;99.90;;;;;;5057176;28;20201;-48
2021/01/29 19:11:25;;;;;;;1999.90;999.90;;;3.70;99.90;;;;;;5052629;28;20431;-49
2021/01/29 19:13:51;;;;;;;1999.90;999.90;;;3.80;99.90;;;;;;5050974;28;20416;-48
2021/01/29 19:16:19;;;;;;;1999.90;999.90;;;3.90;99.90;;;;;;5050358;28;20447;-49
2021/01/29 19:18:44;;;;;;;1999.90;999.90;;;4.00;99.90;;;;;;5059545;28;20460;-49
2021/01/29 19:21:11;;;;;;;1999.90;999.90;;;3.90;99.90;;;;;;5069994;28;20459;-48
2021/01/29 19:23:36;;;;;;;1999.90;999.90;;;3.90;99.90;;;;;;5065694;28;20230;-48
2021/01/29 19:26:02;;;;;;;1999.90;999.90;;;4.10;99.90;;;;;;5057073;28;20463;-48
2021/01/29 19:28:28;;;;;;;1999.90;999.90;;;4.10;99.90;;;;;;5060375;28;20263;-48
2021/01/29 19:30:53;;;;;;;1999.90;999.90;;;4.10;99.90;;;;;;5062271;28;20263;-48
2021/01/29 19:33:19;;;;;;;1999.90;999.90;;;4.10;99.90;;;;;;5061161;28;20213;-48
2021/01/29 19:35:48;;;;;;;1999.90;999.90;;;4.10;99.90;;;;;;5067619;28;20177;-49
2021/01/29 19:38:14;;;;;;;1999.90;999.90;;;4.20;99.90;;;;;;5060686;28;20961;-48
2021/01/29 19:40:39;;;;;;;1999.90;999.90;;;4.10;99.90;;;;;;5050627;28;20448;-48
2021/01/29 19:43:05;;;;;;;1999.90;999.90;;;4.10;99.90;;;;;;5058497;28;20193;-48
2021/01/29 19:45:34;;;;;;;1999.90;999.90;;;4.10;99.90;;;;;;5064900;28;20188;-48
2021/01/29 19:48:00;;;;;;;1999.90;999.90;;;4.10;99.90;;;;;;5060490;28;20239;-48
2021/01/29 19:50:27;;;;;;;1999.90;999.90;;;4.10;99.90;;;;;;5059331;28;20440;-48
2021/01/29 19:52:53;;;;;;;1999.90;999.90;;;4.00;99.90;;;;;;5064660;28;20435;-49
2021/01/29 19:55:19;;;;;;;1999.90;999.90;;;4.10;99.90;;;;;;5068236;28;20442;-48
2021/01/29 19:57:45;;;;;;;1999.90;999.90;;;4.00;99.90;;;;;;5063017;28;20217;-49
2021/01/29 20:00:14;;;;;;;1999.90;999.90;;;3.80;99.90;;;;;;5058419;28;20445;-49
2021/01/29 20:02:40;;;;;;;1999.90;999.90;;;3.90;99.90;;;;;;5069096;28;20613;-49
2021/01/29 20:05:07;;;;;;;1999.90;999.90;;;3.80;99.90;;;;;;5068691;28;20454;-48
2021/01/29 20:07:33;;;;;;;1999.90;999.90;;;3.60;99.90;;;;;;5067193;28;20471;-48
2021/01/29 20:09:59;;;;;;;1999.90;999.90;;;3.70;99.90;;;;;;5060614;28;20455;-48
2021/01/29 20:12:24;;;;;;;1999.90;999.90;;;3.60;99.90;;;;;;5065452;28;20185;-48
2021/01/29 20:14:50;;;;;;;1999.90;999.90;;;3.90;99.90;;;;;;5069482;28;20637;-49
2021/01/29 20:17:17;;;;;;;1999.90;999.90;;;3.90;99.90;;;;;;5053548;28;20301;-48
2021/01/29 20:19:43;;;;;;;1999.90;999.90;;;3.90;99.90;;;;;;5069814;28;20665;-48
2021/01/29 20:22:09;;;;;;;1999.90;999.90;;;4.00;99.90;;;;;;5066222;28;20818;-49
2021/01/29 20:24:37;;;;;;;1999.90;999.90;;;4.00;99.90;;;;;;5066394;28;20443;-48
2021/01/29 20:27:08;;;;;;;1999.90;999.90;;;4.00;99.90;;;;;;5052944;28;20488;-48
2021/01/29 20:29:34;;;;;;;1999.90;999.90;;;3.90;99.90;;;;;;5050032;28;20482;-48
2021/01/29 20:32:00;;;;;;;1999.90;999.90;;;3.80;99.90;;;;;;5051151;28;20440;-48
2021/01/29 20:34:26;;;;;;;1999.90;999.90;;;3.90;99.90;;;;;;5051526;28;20463;-49
2021/01/29 20:36:52;;;;;;;1999.90;999.90;;;3.90;99.90;;;;;;5049635;28;20499;-48
2021/01/29 20:39:18;;;;;;;1999.90;999.90;;;3.90;99.90;;;;;;5050947;28;20448;-48
2021/01/29 20:41:45;;;;;;;1999.90;999.90;;;3.80;99.90;;;;;;5051196;28;20193;-49
2021/01/29 20:44:11;;;;;;;1999.90;999.90;;;3.70;99.90;;;;;;5051466;28;20472;-48
2021/01/29 20:46:37;;;;;;;1999.90;999.90;;;3.60;99.90;;;;;;5054036;28;20526;-48
2021/01/29 20:49:03;;;;;;;1999.90;999.90;;;3.60;99.90;;;;;;5052348;28;20468;-48
2021/01/29 20:51:30;;;;;;;1999.90;999.90;;;3.70;99.90;;;;;;5054017;28;20194;-48
2021/01/29 20:53:56;;;;;;;1999.90;999.90;;;3.70;99.90;;;;;;5061033;28;21015;-48
2021/01/29 20:56:21;;;;;;;1999.90;999.90;;;3.60;99.90;;;;;;5053175;28;20475;-49
2021/01/29 20:58:47;;;;;;;1999.90;999.90;;;3.70;99.90;;;;;;5058250;28;20804;-48
2021/01/29 21:01:13;;;;;;;1999.90;999.90;;;3.70;99.90;;;;;;5064155;28;20187;-49
2021/01/29 21:03:38;;;;;;;1999.90;999.90;;;3.60;99.90;;;;;;5061036;28;20220;-48
2021/01/29 21:06:05;;;;;;;1999.90;999.90;;;3.60;99.90;;;;;;5053646;28;20204;-48
2021/01/29 21:08:30;;;;;;;1999.90;999.90;;;3.70;99.90;;;;;;5054559;28;20225;-49
2021/01/29 21:10:57;;;;;;;1999.90;999.90;;;3.70;99.90;;;;;;5049226;28;20432;-48
2021/01/29 21:13:24;;;;;;;1999.90;999.90;;;3.70;99.90;;;;;;5049519;28;20825;-48
2021/01/29 21:15:50;;;;;;;1999.90;999.90;;;3.60;99.90;;;;;;5048650;28;20495;-47
2021/01/29 21:18:19;;;;;;;1999.90;999.90;;;3.70;99.90;;;;;;5054413;28;20971;-48
2021/01/29 21:20:45;;;;;;;1999.90;999.90;;;3.60;99.90;;;;;;5068144;28;20194;-48
2021/01/29 21:23:12;;;;;;;1999.90;999.90;;;3.60;99.90;;;;;;5064618;28;20443;-49
2021/01/29 21:25:38;;;;;;;1999.90;999.90;;;3.60;99.90;;;;;;5047006;28;20482;-48
2021/01/29 21:28:04;;;;;;;1999.90;999.90;;;3.50;99.90;;;;;;5055077;28;20474;-50
2021/01/29 21:30:31;;;;;;;1999.90;999.90;;;3.40;99.90;;;;;;5066699;28;20201;-48
2021/01/29 21:32:58;;;;;;;1999.90;999.90;;;3.40;99.90;;;;;;5069008;28;20464;-48
2021/01/29 21:35:25;;;;;;;1999.90;999.90;;;3.40;99.90;;;;;;5052453;28;20490;-48
2021/01/29 21:37:52;;;;;;;1999.90;999.90;;;3.40;99.90;;;;;;5066721;28;20555;-48
2021/01/29 21:40:21;;;;;;;1999.90;999.90;;;3.30;99.90;;;;;;5064278;28;20957;-49
2021/01/29 21:42:46;;;;;;;1999.90;999.90;;;3.30;99.90;;;;;;5059682;28;20947;-49
2021/01/29 22:15:23;;;;;;;1999.90;999.90;;;3.40;99.90;;;;;;5123843;27;21106;-48
2021/01/29 22:17:49;;;;;;;1999.90;999.90;;;3.40;99.90;;;;;;5108514;28;20812;-48
2021/01/29 22:20:16;;;;;;;1999.90;999.90;;;3.30;99.90;;;;;;5106556;28;20432;-48
2021/01/29 22:22:43;;;;;;;1999.90;999.90;;;3.30;99.90;;;;;;5106511;28;20791;-48
2021/01/29 22:25:11;;;;;;;1999.90;999.90;;;3.30;99.90;;;;;;5101941;28;20433;-49
2021/01/29 22:27:37;;;;;;;1999.90;999.90;;;3.30;99.90;;;;;;5096471;28;20445;-48
2021/01/29 22:30:09;;;;;;;1999.90;999.90;;;3.40;99.90;;;;;;5104287;28;20438;-48
2021/01/29 22:32:35;;;;;;;1999.90;999.90;;;3.40;99.90;;;;;;5104265;28;20433;-48
2021/01/29 22:35:00;;;;;;;1999.90;999.90;;;3.50;99.90;;;;;;5103514;28;21003;-48
2021/01/29 22:37:28;;;;;;;1999.90;999.90;;;3.50;99.90;;;;;;5105154;28;20930;-48
2021/01/29 22:39:55;;;;;;;1999.90;999.90;;;3.50;99.90;;;;;;5106719;28;20188;-47
2021/01/29 22:42:21;;;;;;;1999.90;999.90;;;3.50;99.90;;;;;;5105270;28;20522;-49
2021/01/29 22:44:48;;;;;;;1999.90;999.90;;;3.50;99.90;;;;;;5106430;28;20430;-48
2021/01/29 22:47:14;;;;;;;1999.90;999.90;;;3.50;99.90;;;;;;5106329;28;20442;-48
2021/01/29 22:49:40;;;;;;;1999.90;999.90;;;3.50;99.90;;;;;;5106871;28;20910;-48
2021/01/29 22:52:07;;;;;;;1999.90;999.90;;;3.40;99.90;;;;;;5106598;28;20414;-47
2021/01/29 22:54:37;;;;;;;1999.90;999.90;;;3.40;99.90;;;;;;5102434;28;20207;-48
2021/01/29 22:57:03;;;;;;;1999.90;999.90;;;3.40;99.90;;;;;;5105116;28;20437;-47
2021/01/29 22:59:29;;;;;;;1999.90;999.90;;;3.40;99.90;;;;;;5106507;28;20513;-48
2021/01/29 23:01:55;;;;;;;1999.90;999.90;;;3.40;99.90;;;;;;5105485;28;20866;-48
2021/01/29 23:04:21;;;;;;;1999.90;999.90;;;3.50;99.90;;;;;;5104670;28;20188;-47
2021/01/29 23:06:46;;;;;;;1999.90;999.90;;;3.50;99.90;;;;;;5100677;28;20446;-48
2021/01/29 23:09:13;;;;;;;1999.90;999.90;;;3.60;99.90;;;;;;5104695;28;20568;-48
2021/01/29 23:11:39;;;;;;;1999.90;999.90;;;3.60;99.90;;;;;;5106010;28;20652;-47
2021/01/29 23:14:06;;;;;;;1999.90;999.90;;;3.70;99.90;;;;;;5105024;28;20461;-48
2021/01/29 23:16:31;;;;;;;1999.90;999.90;;;3.80;99.90;;;;;;5104406;28;20438;-47
2021/01/29 23:18:59;;;;;;;1999.90;999.90;;;3.70;99.90;;;;;;5102222;28;20794;-48
2021/01/29 23:21:32;;;;;;;1999.90;999.90;;;3.70;99.90;;;;;;5103929;28;20999;-48
2021/01/29 23:23:59;;;;;;;1999.90;999.90;;;3.70;99.90;;;;;;5099444;28;20444;-48
2021/01/29 23:26:25;;;;;;;1999.90;999.90;;;3.80;99.90;;;;;;5093904;28;20444;-48
2021/01/29 23:28:51;;;;;;;1999.90;999.90;;;3.80;99.90;;;;;;5091887;28;21055;-47
2021/01/29 23:31:17;;;;;;;1999.90;999.90;;;3.80;99.90;;;;;;5090914;28;20522;-47
2021/01/29 23:33:44;;;;;;;1999.90;999.90;;;3.80;99.90;;;;;;5091362;28;20238;-48
2021/01/29 23:36:10;;;;;;;1999.90;999.90;;;3.80;99.90;;;;;;5088454;28;20450;-48
2021/01/29 23:38:35;;;;;;;1999.90;999.90;;;3.90;99.90;;;;;;5085677;28;20833;-48
2021/01/29 23:41:01;;;;;;;1999.90;999.90;;;3.90;99.90;;;;;;5086847;28;20184;-48
2021/01/29 23:43:27;;;;;;;1999.90;999.90;;;3.90;99.90;;;;;;5091232;28;20779;-49
2021/01/29 23:45:53;;;;;;;1999.90;999.90;;;3.90;99.90;;;;;;5090916;28;20181;-48
2021/01/29 23:48:22;;;;;;;1999.90;999.90;;;3.80;99.90;;;;;;5091074;28;20200;-48
2021/01/29 23:50:48;;;;;;;1999.90;999.90;;;3.80;99.90;;;;;;5091396;28;20443;-48
2021/01/29 23:53:18;;;;;;;1999.90;999.90;;;3.80;99.90;;;;;;5089293;28;20818;-48
2021/01/29 23:55:44;;;;;;;1999.90;999.90;;;3.80;99.90;;;;;;5088468;28;20534;-48
2021/01/29 23:58:10;;;;;;;1999.90;999.90;;;3.80;99.90;;;;;;5091040;28;20569;-49
